Terminal Aerodrome Forecast
Issued by NWS

Home | Current Version | Previous Version | Text Only | Print | Product List | Glossary On
Versions: 1 2 3 4 5 6 7 8 9 10 11 12 13 14 15 16 17 18 19
000
FTUS45 KVEF 291700
TAFHND
TAF
KHND 291720Z 2918/3018 02007KT P6SM OVC120
     FM300300 17005KT P6SM OVC120
     FM300700 VRB05KT P6SM VCSH SCT060 OVC100
     FM301300 01006KT 6SM -RA BR SCT030 OVC060 PROB30 3013/3018 3SM
      RA BR BKN030=

USA.gov is the U.S. government's official web portal to all federal, state and local government web resources and services.